Detalii statie PETRESTI PETRESTI [0000197D]

Toti senzorii

Date Temperatura solului [C]Precipitatii [mm]Voltaj baterie [mV]Leaf Wetness [Min]HC Air temperature [C]HC Relative humidity [%]Punctul de roua [C]
medieminmaxsumaultimatimpmedieminmaxmediemediemin
2018-10-13 16:00:00 0 7226 23.39 23.01 23.78 34.77 6.7 6.1
2018-10-13 17:00:00 0 7206 22.6 22.06 22.98 35.47 6.3 5.8
2018-10-13 18:00:00 0 6922 19.69 17.32 21.83 44.93 7.1 6.8
2018-10-13 19:00:00 0 6864 16.34 14.94 17.23 51.8 6.2 5.9
2018-10-13 20:00:00 0 6834 15.45 14.27 16.69 53.95 6 5.3
2018-10-13 21:00:00 0 6844 13.67 12.22 14.3 56.81 5.1 4.7
2018-10-13 22:00:00 0 6826 11.75 11.29 12.08 63.76 4.9 4.7
2018-10-13 23:00:00 0 6826 11.79 10.04 13.38 65.18 5.3 4.6
2018-10-14 00:00:00 0 6816 10.5 10.23 10.88 69.61 5 4.7
2018-10-14 01:00:00 0 6796 10.07 9.38 10.52 71.24 4.9 4.5
2018-10-14 02:00:00 0 6806 10.09 9.33 10.63 72.66 5.2 4.9
2018-10-14 03:00:00 0 6786 8.92 8.12 9.34 76.9 4.9 4.5
2018-10-14 04:00:00 0 6786 9.02 8.42 9.95 77.59 5.1 4.9
2018-10-14 05:00:00 0 6786 8.78 8.27 9.41 79.44 5.3 4.8
2018-10-14 06:00:00 0 6776 7.86 7.46 8.38 82.85 5 4.5
2018-10-14 07:00:00 0 6766 7.31 6.95 7.73 85.99 5 4.7
2018-10-14 08:00:00 0 6766 8.26 6.98 9.38 82.77 5.3 4.7
2018-10-14 09:00:00 0 6816 11.27 9.94 12.18 71.81 6.2 6.1
2018-10-14 10:00:00 0 6826 13.94 12.36 16.19 64.79 7.1 6.6
2018-10-14 11:00:00 0 6904 17.25 16.21 18.2 49.35 6.3 5.8
2018-10-14 12:00:00 0 6972 18.78 18.42 19.47 42.68 5.6 5.4
2018-10-14 13:00:00 0 7226 21.19 19.34 23.65 36.01 5.1 4.4
2018-10-14 14:00:00 0 7226 22.34 21.65 23.37 29.03 3.1 1.6
2018-10-14 15:00:00 0 7226 23.19 22.3 24.13 21.75 -0.1 -1.2
2018-10-14 16:00:00 0 7216 22.77 22.58 23.31 22.73 0.1 -0.2
2018-10-14 17:00:00 0 7216 22.05 21.17 22.61 24.35 0.3 0
2018-10-14 18:00:00 0 6894 18.66 16.22 20.74 30.56 0.6 0.2
2018-10-14 19:00:00 0 6854 14.68 13.98 15.45 38.29 0.3 0
2018-10-14 20:00:00 0 6834 13.16 12.18 14.34 41.02 0 -1
2018-10-14 21:00:00 0 6834 11.8 11.53 12.05 42.62 -0.5 -0.8
2018-10-14 22:00:00 0 6826 12.2 11.24 13 41.29 -0.6 -1
2018-10-14 23:00:00 0 6826 9.65 9.04 10.8 50.81 -0.1 -0.5
2018-10-15 00:00:00 0 6826 9.61 9.38 9.91 51.57 0 -0.1
2018-10-15 01:00:00 0 6806 9.05 8.6 9.64 52.43 -0.1 -0.3
2018-10-15 02:00:00 0 6806 8.15 7.76 8.92 54.23 -0.6 -0.8
2018-10-15 03:00:00 0 6786 7.62 6.91 8.01 56.81 -0.4 -0.6
2018-10-15 04:00:00 0 6786 8.08 7.47 8.59 54.66 -0.5 -0.7
2018-10-15 05:00:00 0 6776 7.27 6.35 7.91 57.09 -0.7 -1.1
2018-10-15 06:00:00 0 6786 7.55 7.1 8.08 55.37 -0.8 -1.1
2018-10-15 07:00:00 0 6776 7.16 6.64 7.53 57.19 -0.7 -1
2018-10-15 08:00:00 0 6756 8.67 7.72 9.79 54.09 -0.2 -0.7
2018-10-15 09:00:00 0 6806 11.4 10.16 12.56 47.97 0.5 0.3
2018-10-15 10:00:00 0 6816 14.03 12.85 15.21 41.75 1 0.9
2018-10-15 11:00:00 0 6884 16.12 15.23 16.68 36.68 1.1 1
2018-10-15 12:00:00 0 6914 17.92 16.93 18.66 33.71 1.4 1.2
2018-10-15 13:00:00 0 7226 20.31 18.63 21.7 29.81 1.8 1.1
2018-10-15 14:00:00 0 7226 22.64 21.7 24.4 25.77 1.8 1.3
2018-10-15 15:00:00 0 7216 23.21 22.25 23.99 23.89 1.1 0